sensor_id;sensor_type;location;lat;lon;timestamp;P1;durP1;ratioP1;P2;durP2;ratioP2
48052;SDS011;33824;51.600;5.718;2022-08-21T00:01:14;3.80;;;2.35;;
48052;SDS011;33824;51.600;5.718;2022-08-21T00:03:43;6.75;;;2.13;;
48052;SDS011;33824;51.600;5.718;2022-08-21T00:06:09;7.18;;;2.70;;
48052;SDS011;33824;51.600;5.718;2022-08-21T00:08:35;4.32;;;2.05;;
48052;SDS011;33824;51.600;5.718;2022-08-21T00:11:00;4.05;;;2.15;;
48052;SDS011;33824;51.600;5.718;2022-08-21T00:13:27;8.88;;;2.75;;
48052;SDS011;33824;51.600;5.718;2022-08-21T00:15:52;7.43;;;2.45;;
48052;SDS011;33824;51.600;5.718;2022-08-21T00:18:18;5.78;;;2.72;;
48052;SDS011;33824;51.600;5.718;2022-08-21T00:20:45;11.60;;;2.72;;
48052;SDS011;33824;51.600;5.718;2022-08-21T00:23:12;5.20;;;2.47;;
48052;SDS011;33824;51.600;5.718;2022-08-21T00:25:38;5.97;;;2.05;;
48052;SDS011;33824;51.600;5.718;2022-08-21T00:28:04;8.00;;;2.95;;
48052;SDS011;33824;51.600;5.718;2022-08-21T00:30:31;5.68;;;3.00;;
48052;SDS011;33824;51.600;5.718;2022-08-21T00:32:58;10.80;;;3.13;;
48052;SDS011;33824;51.600;5.718;2022-08-21T00:35:27;7.78;;;3.63;;
48052;SDS011;33824;51.600;5.718;2022-08-21T00:37:55;9.13;;;3.47;;
48052;SDS011;33824;51.600;5.718;2022-08-21T00:40:25;9.95;;;3.83;;
48052;SDS011;33824;51.600;5.718;2022-08-21T00:43:00;5.68;;;3.40;;
48052;SDS011;33824;51.600;5.718;2022-08-21T00:45:27;11.57;;;3.72;;
48052;SDS011;33824;51.600;5.718;2022-08-21T00:47:53;9.25;;;4.07;;
48052;SDS011;33824;51.600;5.718;2022-08-21T00:50:20;9.85;;;4.03;;
48052;SDS011;33824;51.600;5.718;2022-08-21T00:52:46;8.35;;;3.67;;
48052;SDS011;33824;51.600;5.718;2022-08-21T00:55:12;7.90;;;3.75;;
48052;SDS011;33824;51.600;5.718;2022-08-21T00:57:40;7.80;;;3.80;;
48052;SDS011;33824;51.600;5.718;2022-08-21T01:00:11;14.63;;;3.70;;
48052;SDS011;33824;51.600;5.718;2022-08-21T01:02:42;6.50;;;3.08;;
48052;SDS011;33824;51.600;5.718;2022-08-21T01:05:08;8.50;;;3.33;;
48052;SDS011;33824;51.600;5.718;2022-08-21T01:07:34;5.53;;;3.40;;
48052;SDS011;33824;51.600;5.718;2022-08-21T01:10:02;9.27;;;3.70;;
48052;SDS011;33824;51.600;5.718;2022-08-21T01:12:28;13.15;;;4.18;;
48052;SDS011;33824;51.600;5.718;2022-08-21T01:14:54;9.48;;;4.30;;
48052;SDS011;33824;51.600;5.718;2022-08-21T01:17:20;13.85;;;3.85;;
48052;SDS011;33824;51.600;5.718;2022-08-21T01:19:46;8.02;;;4.28;;
48052;SDS011;33824;51.600;5.718;2022-08-21T01:22:12;10.30;;;4.22;;
48052;SDS011;33824;51.600;5.718;2022-08-21T01:24:38;9.73;;;4.07;;
48052;SDS011;33824;51.600;5.718;2022-08-21T01:27:04;11.10;;;4.50;;
48052;SDS011;33824;51.600;5.718;2022-08-21T01:29:38;12.90;;;5.40;;
48052;SDS011;33824;51.600;5.718;2022-08-21T01:32:13;8.70;;;4.22;;
48052;SDS011;33824;51.600;5.718;2022-08-21T01:34:41;11.90;;;5.10;;
48052;SDS011;33824;51.600;5.718;2022-08-21T01:37:08;14.77;;;5.28;;
48052;SDS011;33824;51.600;5.718;2022-08-21T01:39:35;9.98;;;4.93;;
48052;SDS011;33824;51.600;5.718;2022-08-21T01:42:01;9.40;;;4.65;;
48052;SDS011;33824;51.600;5.718;2022-08-21T01:44:31;7.00;;;4.35;;
48052;SDS011;33824;51.600;5.718;2022-08-21T01:46:57;8.40;;;4.05;;
48052;SDS011;33824;51.600;5.718;2022-08-21T01:49:24;8.55;;;4.43;;
48052;SDS011;33824;51.600;5.718;2022-08-21T01:51:49;9.38;;;4.45;;
48052;SDS011;33824;51.600;5.718;2022-08-21T01:54:15;11.32;;;4.68;;
48052;SDS011;33824;51.600;5.718;2022-08-21T01:56:45;7.05;;;4.38;;
48052;SDS011;33824;51.600;5.718;2022-08-21T01:59:12;10.98;;;4.85;;
48052;SDS011;33824;51.600;5.718;2022-08-21T02:01:38;8.15;;;4.93;;
48052;SDS011;33824;51.600;5.718;2022-08-21T02:04:07;9.18;;;4.93;;
48052;SDS011;33824;51.600;5.718;2022-08-21T02:06:34;10.20;;;5.00;;
48052;SDS011;33824;51.600;5.718;2022-08-21T02:09:02;9.05;;;5.35;;
48052;SDS011;33824;51.600;5.718;2022-08-21T02:11:30;8.85;;;4.70;;
48052;SDS011;33824;51.600;5.718;2022-08-21T02:13:56;9.43;;;4.78;;
48052;SDS011;33824;51.600;5.718;2022-08-21T02:16:22;8.65;;;4.25;;
48052;SDS011;33824;51.600;5.718;2022-08-21T02:18:47;9.30;;;4.43;;
48052;SDS011;33824;51.600;5.718;2022-08-21T02:21:13;9.52;;;4.53;;
48052;SDS011;33824;51.600;5.718;2022-08-21T02:23:39;8.23;;;4.93;;
48052;SDS011;33824;51.600;5.718;2022-08-21T02:26:05;10.25;;;4.38;;
48052;SDS011;33824;51.600;5.718;2022-08-21T02:28:33;10.50;;;4.35;;
48052;SDS011;33824;51.600;5.718;2022-08-21T02:31:00;5.63;;;3.63;;
48052;SDS011;33824;51.600;5.718;2022-08-21T02:33:27;8.25;;;4.57;;
48052;SDS011;33824;51.600;5.718;2022-08-21T02:35:53;5.63;;;3.85;;
48052;SDS011;33824;51.600;5.718;2022-08-21T02:38:22;7.60;;;4.55;;
48052;SDS011;33824;51.600;5.718;2022-08-21T02:40:49;13.32;;;4.53;;
48052;SDS011;33824;51.600;5.718;2022-08-21T02:43:16;10.90;;;4.75;;
48052;SDS011;33824;51.600;5.718;2022-08-21T02:45:43;6.68;;;4.00;;
48052;SDS011;33824;51.600;5.718;2022-08-21T02:48:11;5.80;;;4.07;;
48052;SDS011;33824;51.600;5.718;2022-08-21T02:50:41;13.27;;;5.00;;
48052;SDS011;33824;51.600;5.718;2022-08-21T02:53:10;11.18;;;4.35;;
48052;SDS011;33824;51.600;5.718;2022-08-21T02:55:38;9.50;;;4.50;;
48052;SDS011;33824;51.600;5.718;2022-08-21T02:58:04;11.85;;;4.75;;
48052;SDS011;33824;51.600;5.718;2022-08-21T03:00:33;9.77;;;4.68;;
48052;SDS011;33824;51.600;5.718;2022-08-21T03:03:00;7.07;;;4.43;;
48052;SDS011;33824;51.600;5.718;2022-08-21T03:05:26;12.02;;;4.13;;
48052;SDS011;33824;51.600;5.718;2022-08-21T03:07:53;7.85;;;4.03;;
48052;SDS011;33824;51.600;5.718;2022-08-21T03:10:19;13.25;;;4.18;;
48052;SDS011;33824;51.600;5.718;2022-08-21T03:12:46;5.05;;;3.45;;
48052;SDS011;33824;51.600;5.718;2022-08-21T03:15:14;10.55;;;4.88;;
48052;SDS011;33824;51.600;5.718;2022-08-21T03:17:42;8.35;;;5.13;;
48052;SDS011;33824;51.600;5.718;2022-08-21T03:20:09;8.00;;;4.57;;
48052;SDS011;33824;51.600;5.718;2022-08-21T03:22:35;10.88;;;4.90;;
48052;SDS011;33824;51.600;5.718;2022-08-21T03:25:01;10.98;;;5.65;;
48052;SDS011;33824;51.600;5.718;2022-08-21T03:27:28;11.48;;;5.55;;
48052;SDS011;33824;51.600;5.718;2022-08-21T03:29:54;7.60;;;4.15;;
48052;SDS011;33824;51.600;5.718;2022-08-21T03:32:20;11.93;;;5.40;;
48052;SDS011;33824;51.600;5.718;2022-08-21T03:34:46;6.88;;;4.40;;
48052;SDS011;33824;51.600;5.718;2022-08-21T03:37:12;6.63;;;4.18;;
48052;SDS011;33824;51.600;5.718;2022-08-21T03:39:38;7.85;;;4.82;;
48052;SDS011;33824;51.600;5.718;2022-08-21T03:42:05;8.20;;;4.45;;
48052;SDS011;33824;51.600;5.718;2022-08-21T03:44:34;9.93;;;4.82;;
48052;SDS011;33824;51.600;5.718;2022-08-21T03:47:01;7.55;;;4.80;;
48052;SDS011;33824;51.600;5.718;2022-08-21T03:49:26;8.93;;;4.65;;
48052;SDS011;33824;51.600;5.718;2022-08-21T03:51:52;7.82;;;4.40;;
48052;SDS011;33824;51.600;5.718;2022-08-21T03:54:17;9.73;;;5.30;;
48052;SDS011;33824;51.600;5.718;2022-08-21T03:56:43;10.80;;;5.93;;
48052;SDS011;33824;51.600;5.718;2022-08-21T03:59:09;8.30;;;4.70;;
48052;SDS011;33824;51.600;5.718;2022-08-21T04:01:34;9.18;;;4.90;;
48052;SDS011;33824;51.600;5.718;2022-08-21T04:03:59;8.52;;;4.80;;
48052;SDS011;33824;51.600;5.718;2022-08-21T04:06:25;9.82;;;5.53;;
48052;SDS011;33824;51.600;5.718;2022-08-21T04:08:51;13.00;;;5.03;;
48052;SDS011;33824;51.600;5.718;2022-08-21T04:11:18;13.93;;;5.47;;
48052;SDS011;33824;51.600;5.718;2022-08-21T04:13:44;10.80;;;4.57;;
48052;SDS011;33824;51.600;5.718;2022-08-21T04:16:10;9.77;;;5.00;;
48052;SDS011;33824;51.600;5.718;2022-08-21T04:18:37;8.85;;;5.03;;
48052;SDS011;33824;51.600;5.718;2022-08-21T04:21:03;10.43;;;5.10;;
48052;SDS011;33824;51.600;5.718;2022-08-21T04:23:28;9.98;;;4.95;;
48052;SDS011;33824;51.600;5.718;2022-08-21T04:25:54;12.88;;;4.85;;
48052;SDS011;33824;51.600;5.718;2022-08-21T04:28:21;7.40;;;4.85;;
48052;SDS011;33824;51.600;5.718;2022-08-21T04:30:48;8.77;;;5.07;;
48052;SDS011;33824;51.600;5.718;2022-08-21T04:33:17;9.73;;;5.22;;
48052;SDS011;33824;51.600;5.718;2022-08-21T04:35:43;9.27;;;4.93;;
48052;SDS011;33824;51.600;5.718;2022-08-21T04:38:09;7.97;;;5.28;;
48052;SDS011;33824;51.600;5.718;2022-08-21T04:40:34;16.67;;;4.80;;
48052;SDS011;33824;51.600;5.718;2022-08-21T04:43:02;9.25;;;4.70;;
48052;SDS011;33824;51.600;5.718;2022-08-21T04:45:52;7.95;;;4.55;;
48052;SDS011;33824;51.600;5.718;2022-08-21T04:48:19;12.02;;;4.60;;
48052;SDS011;33824;51.600;5.718;2022-08-21T04:50:48;20.27;;;5.05;;
48052;SDS011;33824;51.600;5.718;2022-08-21T04:53:34;11.68;;;4.80;;
48052;SDS011;33824;51.600;5.718;2022-08-21T04:56:08;15.38;;;5.30;;
48052;SDS011;33824;51.600;5.718;2022-08-21T04:58:37;9.10;;;4.45;;
48052;SDS011;33824;51.600;5.718;2022-08-21T05:01:04;7.03;;;4.47;;
48052;SDS011;33824;51.600;5.718;2022-08-21T05:03:32;7.55;;;4.53;;
48052;SDS011;33824;51.600;5.718;2022-08-21T05:05:59;11.98;;;5.00;;
48052;SDS011;33824;51.600;5.718;2022-08-21T05:08:25;13.18;;;5.03;;
48052;SDS011;33824;51.600;5.718;2022-08-21T05:10:53;10.13;;;5.05;;
48052;SDS011;33824;51.600;5.718;2022-08-21T05:13:19;13.93;;;5.03;;
48052;SDS011;33824;51.600;5.718;2022-08-21T05:15:45;11.85;;;4.82;;
48052;SDS011;33824;51.600;5.718;2022-08-21T05:18:11;14.07;;;5.07;;
48052;SDS011;33824;51.600;5.718;2022-08-21T05:20:37;8.07;;;4.85;;
48052;SDS011;33824;51.600;5.718;2022-08-21T05:23:07;10.65;;;4.93;;
48052;SDS011;33824;51.600;5.718;2022-08-21T05:25:36;8.85;;;4.88;;
48052;SDS011;33824;51.600;5.718;2022-08-21T05:28:03;12.43;;;4.95;;
48052;SDS011;33824;51.600;5.718;2022-08-21T05:30:29;17.20;;;5.28;;
48052;SDS011;33824;51.600;5.718;2022-08-21T05:32:56;9.73;;;4.57;;
48052;SDS011;33824;51.600;5.718;2022-08-21T05:35:26;9.40;;;4.68;;
48052;SDS011;33824;51.600;5.718;2022-08-21T05:37:52;10.43;;;4.28;;
48052;SDS011;33824;51.600;5.718;2022-08-21T05:40:17;8.13;;;4.40;;
48052;SDS011;33824;51.600;5.718;2022-08-21T05:42:43;9.55;;;4.65;;
48052;SDS011;33824;51.600;5.718;2022-08-21T05:45:09;10.55;;;4.68;;
48052;SDS011;33824;51.600;5.718;2022-08-21T05:47:35;8.25;;;4.57;;
48052;SDS011;33824;51.600;5.718;2022-08-21T05:50:01;10.43;;;4.40;;
48052;SDS011;33824;51.600;5.718;2022-08-21T05:52:27;9.52;;;3.97;;
48052;SDS011;33824;51.600;5.718;2022-08-21T05:54:52;8.27;;;4.07;;
48052;SDS011;33824;51.600;5.718;2022-08-21T05:57:21;5.85;;;3.78;;
48052;SDS011;33824;51.600;5.718;2022-08-21T05:59:48;9.90;;;4.00;;
48052;SDS011;33824;51.600;5.718;2022-08-21T06:02:16;7.65;;;3.67;;
48052;SDS011;33824;51.600;5.718;2022-08-21T06:04:43;15.27;;;4.13;;
48052;SDS011;33824;51.600;5.718;2022-08-21T06:07:08;6.43;;;3.38;;
48052;SDS011;33824;51.600;5.718;2022-08-21T06:09:34;8.38;;;3.97;;
48052;SDS011;33824;51.600;5.718;2022-08-21T06:12:18;12.73;;;3.58;;
48052;SDS011;33824;51.600;5.718;2022-08-21T06:14:43;7.85;;;3.65;;
48052;SDS011;33824;51.600;5.718;2022-08-21T06:17:09;7.30;;;3.30;;
48052;SDS011;33824;51.600;5.718;2022-08-21T06:19:37;9.65;;;3.65;;
48052;SDS011;33824;51.600;5.718;2022-08-21T06:22:03;8.02;;;3.50;;
48052;SDS011;33824;51.600;5.718;2022-08-21T06:24:29;8.25;;;3.40;;
48052;SDS011;33824;51.600;5.718;2022-08-21T06:26:55;9.63;;;3.20;;
48052;SDS011;33824;51.600;5.718;2022-08-21T06:29:21;7.25;;;3.15;;
48052;SDS011;33824;51.600;5.718;2022-08-21T06:31:47;10.57;;;3.28;;
48052;SDS011;33824;51.600;5.718;2022-08-21T06:34:14;13.05;;;2.88;;
48052;SDS011;33824;51.600;5.718;2022-08-21T06:36:40;6.03;;;2.80;;
48052;SDS011;33824;51.600;5.718;2022-08-21T06:39:06;8.68;;;3.00;;
48052;SDS011;33824;51.600;5.718;2022-08-21T06:41:31;12.48;;;2.75;;
48052;SDS011;33824;51.600;5.718;2022-08-21T06:43:57;5.55;;;2.95;;
48052;SDS011;33824;51.600;5.718;2022-08-21T06:46:27;9.70;;;2.70;;
48052;SDS011;33824;51.600;5.718;2022-08-21T06:48:56;5.82;;;2.35;;
48052;SDS011;33824;51.600;5.718;2022-08-21T06:51:23;9.73;;;2.40;;
48052;SDS011;33824;51.600;5.718;2022-08-21T06:53:50;13.93;;;3.08;;
48052;SDS011;33824;51.600;5.718;2022-08-21T06:56:16;8.65;;;2.55;;
48052;SDS011;33824;51.600;5.718;2022-08-21T06:58:41;10.02;;;2.38;;
48052;SDS011;33824;51.600;5.718;2022-08-21T07:01:07;7.43;;;2.50;;
48052;SDS011;33824;51.600;5.718;2022-08-21T07:03:33;5.75;;;2.22;;
48052;SDS011;33824;51.600;5.718;2022-08-21T07:06:02;8.43;;;2.13;;
48052;SDS011;33824;51.600;5.718;2022-08-21T07:08:29;8.80;;;2.60;;
48052;SDS011;33824;51.600;5.718;2022-08-21T07:10:57;9.73;;;2.72;;
48052;SDS011;33824;51.600;5.718;2022-08-21T07:13:25;8.55;;;3.03;;
48052;SDS011;33824;51.600;5.718;2022-08-21T07:15:51;10.48;;;3.10;;
48052;SDS011;33824;51.600;5.718;2022-08-21T07:18:16;5.10;;;2.20;;
48052;SDS011;33824;51.600;5.718;2022-08-21T07:20:42;9.10;;;2.63;;
48052;SDS011;33824;51.600;5.718;2022-08-21T07:23:15;6.15;;;2.53;;
48052;SDS011;33824;51.600;5.718;2022-08-21T07:25:53;5.95;;;2.30;;
48052;SDS011;33824;51.600;5.718;2022-08-21T07:28:18;8.73;;;2.13;;
48052;SDS011;33824;51.600;5.718;2022-08-21T07:30:44;11.02;;;2.67;;
48052;SDS011;33824;51.600;5.718;2022-08-21T07:33:10;8.88;;;2.63;;
48052;SDS011;33824;51.600;5.718;2022-08-21T07:35:35;8.27;;;3.03;;
48052;SDS011;33824;51.600;5.718;2022-08-21T07:38:01;9.05;;;2.30;;
48052;SDS011;33824;51.600;5.718;2022-08-21T07:40:26;9.55;;;2.25;;
48052;SDS011;33824;51.600;5.718;2022-08-21T07:42:52;9.43;;;3.03;;
48052;SDS011;33824;51.600;5.718;2022-08-21T07:45:21;11.25;;;2.75;;
48052;SDS011;33824;51.600;5.718;2022-08-21T07:47:49;9.50;;;2.30;;
48052;SDS011;33824;51.600;5.718;2022-08-21T07:50:15;9.27;;;2.80;;
48052;SDS011;33824;51.600;5.718;2022-08-21T07:52:41;9.80;;;2.33;;
48052;SDS011;33824;51.600;5.718;2022-08-21T07:55:09;10.82;;;2.63;;
48052;SDS011;33824;51.600;5.718;2022-08-21T07:57:36;9.48;;;2.42;;
48052;SDS011;33824;51.600;5.718;2022-08-21T08:00:06;13.25;;;2.22;;
48052;SDS011;33824;51.600;5.718;2022-08-21T08:02:34;9.13;;;2.60;;
48052;SDS011;33824;51.600;5.718;2022-08-21T08:05:00;10.52;;;2.83;;
48052;SDS011;33824;51.600;5.718;2022-08-21T08:07:27;9.05;;;2.47;;
48052;SDS011;33824;51.600;5.718;2022-08-21T08:09:52;13.18;;;3.00;;
48052;SDS011;33824;51.600;5.718;2022-08-21T08:12:18;8.25;;;2.55;;
48052;SDS011;33824;51.600;5.718;2022-08-21T08:14:45;12.38;;;2.63;;
48052;SDS011;33824;51.600;5.718;2022-08-21T08:17:10;9.77;;;2.47;;
48052;SDS011;33824;51.600;5.718;2022-08-21T08:19:36;12.20;;;3.30;;
48052;SDS011;33824;51.600;5.718;2022-08-21T08:22:01;8.93;;;2.30;;
48052;SDS011;33824;51.600;5.718;2022-08-21T08:24:26;12.23;;;2.50;;
48052;SDS011;33824;51.600;5.718;2022-08-21T08:26:52;7.45;;;2.42;;
48052;SDS011;33824;51.600;5.718;2022-08-21T08:29:19;12.45;;;2.85;;
48052;SDS011;33824;51.600;5.718;2022-08-21T08:31:46;15.77;;;3.38;;
48052;SDS011;33824;51.600;5.718;2022-08-21T08:34:11;12.65;;;2.60;;
48052;SDS011;33824;51.600;5.718;2022-08-21T08:36:37;9.13;;;2.00;;
48052;SDS011;33824;51.600;5.718;2022-08-21T08:39:02;14.32;;;2.70;;
48052;SDS011;33824;51.600;5.718;2022-08-21T08:41:29;10.07;;;2.10;;
48052;SDS011;33824;51.600;5.718;2022-08-21T08:43:58;4.72;;;1.70;;
48052;SDS011;33824;51.600;5.718;2022-08-21T08:46:31;8.02;;;1.90;;
48052;SDS011;33824;51.600;5.718;2022-08-21T08:49:08;8.75;;;1.77;;
48052;SDS011;33824;51.600;5.718;2022-08-21T08:51:38;10.57;;;2.05;;
48052;SDS011;33824;51.600;5.718;2022-08-21T08:54:07;7.57;;;2.33;;
48052;SDS011;33824;51.600;5.718;2022-08-21T08:56:36;10.27;;;2.08;;
48052;SDS011;33824;51.600;5.718;2022-08-21T08:59:15;8.25;;;1.40;;
48052;SDS011;33824;51.600;5.718;2022-08-21T09:01:42;19.60;;;2.47;;
48052;SDS011;33824;51.600;5.718;2022-08-21T09:04:09;8.80;;;1.88;;
48052;SDS011;33824;51.600;5.718;2022-08-21T09:06:51;7.57;;;1.70;;
48052;SDS011;33824;51.600;5.718;2022-08-21T09:12:06;8.82;;;1.60;;
48052;SDS011;33824;51.600;5.718;2022-08-21T09:17:39;6.75;;;1.27;;
48052;SDS011;33824;51.600;5.718;2022-08-21T09:28:37;8.02;;;1.10;;
48052;SDS011;33824;51.600;5.718;2022-08-21T09:31:07;9.98;;;2.42;;
48052;SDS011;33824;51.600;5.718;2022-08-21T09:33:36;4.32;;;1.30;;
48052;SDS011;33824;51.600;5.718;2022-08-21T09:36:02;6.65;;;1.40;;
48052;SDS011;33824;51.600;5.718;2022-08-21T09:38:33;8.82;;;1.55;;
48052;SDS011;33824;51.600;5.718;2022-08-21T09:41:06;6.35;;;1.50;;
48052;SDS011;33824;51.600;5.718;2022-08-21T09:43:34;5.93;;;1.17;;
48052;SDS011;33824;51.600;5.718;2022-08-21T09:46:11;7.50;;;1.85;;
48052;SDS011;33824;51.600;5.718;2022-08-21T09:48:46;10.80;;;1.40;;
48052;SDS011;33824;51.600;5.718;2022-08-21T09:51:14;3.95;;;0.90;;
48052;SDS011;33824;51.600;5.718;2022-08-21T09:56:37;9.00;;;1.20;;
48052;SDS011;33824;51.600;5.718;2022-08-21T09:59:42;5.53;;;1.00;;
48052;SDS011;33824;51.600;5.718;2022-08-21T10:02:28;5.68;;;1.50;;
48052;SDS011;33824;51.600;5.718;2022-08-21T10:04:59;4.85;;;1.40;;
48052;SDS011;33824;51.600;5.718;2022-08-21T10:07:45;4.88;;;1.02;;
48052;SDS011;33824;51.600;5.718;2022-08-21T10:10:16;5.10;;;1.10;;
48052;SDS011;33824;51.600;5.718;2022-08-21T10:13:01;6.38;;;1.17;;
48052;SDS011;33824;51.600;5.718;2022-08-21T10:23:50;5.13;;;1.10;;
48052;SDS011;33824;51.600;5.718;2022-08-21T10:26:39;6.25;;;1.25;;
48052;SDS011;33824;51.600;5.718;2022-08-21T10:29:47;4.88;;;1.33;;
48052;SDS011;33824;51.600;5.718;2022-08-21T10:32:41;5.20;;;1.00;;
48052;SDS011;33824;51.600;5.718;2022-08-21T10:37:52;6.88;;;1.30;;
48052;SDS011;33824;51.600;5.718;2022-08-21T10:43:26;6.05;;;1.17;;
48052;SDS011;33824;51.600;5.718;2022-08-21T10:46:29;8.90;;;1.25;;
48052;SDS011;33824;51.600;5.718;2022-08-21T10:49:21;4.93;;;1.00;;
48052;SDS011;33824;51.600;5.718;2022-08-21T10:54:41;5.45;;;0.88;;
48052;SDS011;33824;51.600;5.718;2022-08-21T10:57:19;2.88;;;1.05;;
48052;SDS011;33824;51.600;5.718;2022-08-21T11:00:10;6.75;;;1.35;;
48052;SDS011;33824;51.600;5.718;2022-08-21T11:05:32;6.68;;;1.33;;
48052;SDS011;33824;51.600;5.718;2022-08-21T11:08:10;5.20;;;1.40;;
48052;SDS011;33824;51.600;5.718;2022-08-21T11:10:41;5.60;;;0.95;;
48052;SDS011;33824;51.600;5.718;2022-08-21T11:13:26;8.38;;;1.60;;
48052;SDS011;33824;51.600;5.718;2022-08-21T11:16:05;2.33;;;0.73;;
48052;SDS011;33824;51.600;5.718;2022-08-21T11:18:43;5.35;;;1.38;;
48052;SDS011;33824;51.600;5.718;2022-08-21T11:21:19;4.18;;;0.90;;
48052;SDS011;33824;51.600;5.718;2022-08-21T11:23:53;11.23;;;1.90;;
48052;SDS011;33824;51.600;5.718;2022-08-21T11:26:38;2.28;;;0.82;;
48052;SDS011;33824;51.600;5.718;2022-08-21T11:29:13;4.43;;;1.42;;
48052;SDS011;33824;51.600;5.718;2022-08-21T11:34:41;5.63;;;0.98;;
48052;SDS011;33824;51.600;5.718;2022-08-21T11:37:35;3.33;;;1.00;;
48052;SDS011;33824;51.600;5.718;2022-08-21T11:40:15;4.18;;;1.10;;
48052;SDS011;33824;51.600;5.718;2022-08-21T11:42:47;4.43;;;1.00;;
48052;SDS011;33824;51.600;5.718;2022-08-21T11:45:30;7.68;;;1.23;;
48052;SDS011;33824;51.600;5.718;2022-08-21T11:50:46;4.72;;;1.58;;
48052;SDS011;33824;51.600;5.718;2022-08-21T11:56:04;5.95;;;1.33;;
48052;SDS011;33824;51.600;5.718;2022-08-21T11:58:50;3.40;;;1.33;;
48052;SDS011;33824;51.600;5.718;2022-08-21T12:01:21;4.88;;;1.38;;
48052;SDS011;33824;51.600;5.718;2022-08-21T12:04:10;3.90;;;1.38;;
48052;SDS011;33824;51.600;5.718;2022-08-21T12:06:47;5.90;;;1.63;;
48052;SDS011;33824;51.600;5.718;2022-08-21T12:11:50;7.13;;;1.90;;
48052;SDS011;33824;51.600;5.718;2022-08-21T12:17:41;6.78;;;2.08;;
48052;SDS011;33824;51.600;5.718;2022-08-21T12:22:53;6.20;;;1.57;;
48052;SDS011;33824;51.600;5.718;2022-08-21T12:28:08;5.25;;;1.35;;
48052;SDS011;33824;51.600;5.718;2022-08-21T12:30:37;5.43;;;1.20;;
48052;SDS011;33824;51.600;5.718;2022-08-21T12:33:09;8.73;;;1.58;;
48052;SDS011;33824;51.600;5.718;2022-08-21T12:35:43;4.57;;;1.30;;
48052;SDS011;33824;51.600;5.718;2022-08-21T12:38:12;4.75;;;1.25;;
48052;SDS011;33824;51.600;5.718;2022-08-21T12:40:50;7.22;;;1.33;;
48052;SDS011;33824;51.600;5.718;2022-08-21T12:43:31;4.47;;;1.13;;
48052;SDS011;33824;51.600;5.718;2022-08-21T12:45:59;6.10;;;1.10;;
48052;SDS011;33824;51.600;5.718;2022-08-21T12:53:47;2.15;;;0.77;;
48052;SDS011;33824;51.600;5.718;2022-08-21T12:56:17;6.03;;;1.10;;
48052;SDS011;33824;51.600;5.718;2022-08-21T12:58:46;5.32;;;0.90;;
48052;SDS011;33824;51.600;5.718;2022-08-21T13:01:17;5.80;;;1.08;;
48052;SDS011;33824;51.600;5.718;2022-08-21T13:03:49;5.80;;;1.35;;
48052;SDS011;33824;51.600;5.718;2022-08-21T13:06:16;5.78;;;1.05;;
48052;SDS011;33824;51.600;5.718;2022-08-21T13:08:44;5.88;;;1.10;;
48052;SDS011;33824;51.600;5.718;2022-08-21T13:11:12;4.38;;;1.13;;
48052;SDS011;33824;51.600;5.718;2022-08-21T13:13:41;4.13;;;1.05;;
48052;SDS011;33824;51.600;5.718;2022-08-21T13:16:07;3.25;;;1.10;;
48052;SDS011;33824;51.600;5.718;2022-08-21T13:18:35;6.90;;;1.38;;
48052;SDS011;33824;51.600;5.718;2022-08-21T13:21:16;4.47;;;1.15;;
48052;SDS011;33824;51.600;5.718;2022-08-21T13:23:42;3.65;;;1.13;;
48052;SDS011;33824;51.600;5.718;2022-08-21T13:26:14;7.15;;;1.00;;
48052;SDS011;33824;51.600;5.718;2022-08-21T13:28:41;7.55;;;1.02;;
48052;SDS011;33824;51.600;5.718;2022-08-21T13:31:09;9.07;;;1.42;;
48052;SDS011;33824;51.600;5.718;2022-08-21T13:33:38;2.83;;;1.00;;
48052;SDS011;33824;51.600;5.718;2022-08-21T13:38:39;4.25;;;2.13;;
48052;SDS011;33824;51.600;5.718;2022-08-21T13:41:15;3.92;;;1.02;;
48052;SDS011;33824;51.600;5.718;2022-08-21T13:43:57;6.10;;;1.30;;
48052;SDS011;33824;51.600;5.718;2022-08-21T13:46:26;3.03;;;0.73;;
48052;SDS011;33824;51.600;5.718;2022-08-21T13:48:54;4.30;;;1.00;;
48052;SDS011;33824;51.600;5.718;2022-08-21T13:51:20;8.15;;;1.60;;
48052;SDS011;33824;51.600;5.718;2022-08-21T13:53:47;6.63;;;1.20;;
48052;SDS011;33824;51.600;5.718;2022-08-21T13:56:22;3.92;;;1.10;;
48052;SDS011;33824;51.600;5.718;2022-08-21T13:58:48;4.53;;;1.92;;
48052;SDS011;33824;51.600;5.718;2022-08-21T14:01:20;4.05;;;0.88;;
48052;SDS011;33824;51.600;5.718;2022-08-21T14:04:36;4.93;;;1.00;;
48052;SDS011;33824;51.600;5.718;2022-08-21T14:07:00;7.35;;;1.25;;
48052;SDS011;33824;51.600;5.718;2022-08-21T14:11:54;7.82;;;1.35;;
48052;SDS011;33824;51.600;5.718;2022-08-21T14:14:26;3.72;;;1.00;;
48052;SDS011;33824;51.600;5.718;2022-08-21T14:16:57;5.75;;;0.90;;
48052;SDS011;33824;51.600;5.718;2022-08-21T14:19:35;3.78;;;1.00;;
48052;SDS011;33824;51.600;5.718;2022-08-21T14:25:04;3.42;;;1.00;;
48052;SDS011;33824;51.600;5.718;2022-08-21T14:27:34;4.95;;;0.98;;
48052;SDS011;33824;51.600;5.718;2022-08-21T14:30:04;3.58;;;0.95;;
48052;SDS011;33824;51.600;5.718;2022-08-21T14:32:37;6.32;;;1.10;;
48052;SDS011;33824;51.600;5.718;2022-08-21T14:35:05;4.60;;;1.48;;
48052;SDS011;33824;51.600;5.718;2022-08-21T14:37:30;7.07;;;1.50;;
48052;SDS011;33824;51.600;5.718;2022-08-21T14:39:56;3.42;;;0.82;;
48052;SDS011;33824;51.600;5.718;2022-08-21T14:42:24;3.78;;;0.82;;
48052;SDS011;33824;51.600;5.718;2022-08-21T14:44:50;5.93;;;1.25;;
48052;SDS011;33824;51.600;5.718;2022-08-21T14:47:19;7.13;;;1.30;;
48052;SDS011;33824;51.600;5.718;2022-08-21T14:49:44;7.15;;;1.50;;
48052;SDS011;33824;51.600;5.718;2022-08-21T14:52:10;7.68;;;1.15;;
48052;SDS011;33824;51.600;5.718;2022-08-21T14:54:36;5.93;;;1.20;;
48052;SDS011;33824;51.600;5.718;2022-08-21T14:57:04;6.75;;;1.30;;
48052;SDS011;33824;51.600;5.718;2022-08-21T14:59:31;7.18;;;1.63;;
48052;SDS011;33824;51.600;5.718;2022-08-21T15:01:58;7.00;;;1.38;;
48052;SDS011;33824;51.600;5.718;2022-08-21T15:04:24;6.30;;;1.08;;
48052;SDS011;33824;51.600;5.718;2022-08-21T15:06:49;4.78;;;1.33;;
48052;SDS011;33824;51.600;5.718;2022-08-21T15:09:15;8.18;;;1.30;;
48052;SDS011;33824;51.600;5.718;2022-08-21T15:11:43;4.35;;;1.25;;
48052;SDS011;33824;51.600;5.718;2022-08-21T15:14:10;4.25;;;1.20;;
48052;SDS011;33824;51.600;5.718;2022-08-21T15:16:42;4.72;;;1.00;;
48052;SDS011;33824;51.600;5.718;2022-08-21T15:19:09;5.70;;;1.00;;
48052;SDS011;33824;51.600;5.718;2022-08-21T15:21:35;7.35;;;1.85;;
48052;SDS011;33824;51.600;5.718;2022-08-21T15:24:00;2.30;;;0.88;;
48052;SDS011;33824;51.600;5.718;2022-08-21T15:26:26;6.32;;;1.58;;
48052;SDS011;33824;51.600;5.718;2022-08-21T15:28:51;4.97;;;1.05;;
48052;SDS011;33824;51.600;5.718;2022-08-21T15:31:17;4.50;;;1.15;;
48052;SDS011;33824;51.600;5.718;2022-08-21T15:33:42;6.93;;;1.13;;
48052;SDS011;33824;51.600;5.718;2022-08-21T15:36:08;7.53;;;1.30;;
48052;SDS011;33824;51.600;5.718;2022-08-21T15:38:33;6.03;;;1.23;;
48052;SDS011;33824;51.600;5.718;2022-08-21T15:40:59;5.15;;;1.38;;
48052;SDS011;33824;51.600;5.718;2022-08-21T15:43:27;4.00;;;0.73;;
48052;SDS011;33824;51.600;5.718;2022-08-21T15:45:58;8.77;;;1.25;;
48052;SDS011;33824;51.600;5.718;2022-08-21T15:48:24;4.93;;;1.17;;
48052;SDS011;33824;51.600;5.718;2022-08-21T15:50:50;9.80;;;1.80;;
48052;SDS011;33824;51.600;5.718;2022-08-21T15:53:16;4.35;;;0.90;;
48052;SDS011;33824;51.600;5.718;2022-08-21T15:55:41;7.78;;;1.60;;
48052;SDS011;33824;51.600;5.718;2022-08-21T15:58:07;6.20;;;1.15;;
48052;SDS011;33824;51.600;5.718;2022-08-21T16:00:38;3.05;;;0.82;;
48052;SDS011;33824;51.600;5.718;2022-08-21T16:03:05;4.18;;;1.30;;
48052;SDS011;33824;51.600;5.718;2022-08-21T16:05:32;5.25;;;1.73;;
48052;SDS011;33824;51.600;5.718;2022-08-21T16:07:58;12.02;;;1.50;;